createdAt,value
2022-08-29T00:01:55.764Z,97154.44
2022-08-29T00:07:16.930Z,97151.66
2022-08-29T00:12:38.479Z,97151.03
2022-08-29T00:17:59.809Z,97151.16
2022-08-29T00:23:20.954Z,97142.31
2022-08-29T00:28:41.867Z,97140.22
2022-08-29T00:34:03.312Z,97138.88
2022-08-29T00:39:24.297Z,97147.13
2022-08-29T00:44:46.232Z,97147.31
2022-08-29T00:50:10.056Z,97148.31
2022-08-29T00:55:34.489Z,97152.59
2022-08-29T01:00:55.634Z,97156.72
2022-08-29T01:06:16.560Z,97158.69
2022-08-29T01:11:56.543Z,97163.50
2022-08-29T01:17:34.198Z,97149.81
2022-08-29T01:23:21.269Z,97155.78
2022-08-29T01:28:47.580Z,97153.94
2022-08-29T01:34:11.101Z,97146.09
2022-08-29T01:39:35.581Z,97158.56
2022-08-29T01:44:58.925Z,97159.88
2022-08-29T01:50:20.490Z,97158.56
2022-08-29T01:55:42.477Z,97165.31
2022-08-29T02:01:03.060Z,97167.28
2022-08-29T02:06:23.772Z,97162.34
2022-08-29T02:11:46.498Z,97156.28
2022-08-29T02:17:08.576Z,97153.00
2022-08-29T02:22:29.372Z,97155.78
2022-08-29T02:27:53.235Z,97165.19
2022-08-29T02:33:14.028Z,97158.59
2022-08-29T02:38:35.885Z,97155.97
2022-08-29T02:43:56.927Z,97157.75
2022-08-29T02:49:17.637Z,97156.97
2022-08-29T02:54:39.045Z,97154.72
2022-08-29T03:00:00.447Z,97152.06
2022-08-29T03:05:24.925Z,97159.31
2022-08-29T03:10:45.805Z,97147.97
2022-08-29T03:16:07.004Z,97149.94
2022-08-29T03:21:28.352Z,97149.44
2022-08-29T03:26:56.537Z,97157.19
2022-08-29T03:32:18.021Z,97155.53
2022-08-29T03:37:38.755Z,97149.13
2022-08-29T03:42:59.472Z,97152.91
2022-08-29T03:48:20.267Z,97153.59
2022-08-29T03:53:41.453Z,97159.97
2022-08-29T03:59:02.500Z,97170.00
2022-08-29T04:04:44.124Z,97173.81
2022-08-29T04:10:07.189Z,97169.50
2022-08-29T04:15:29.652Z,97182.69
2022-08-29T04:20:50.864Z,97175.91
2022-08-29T04:26:35.937Z,97182.69
2022-08-29T04:31:57.535Z,97186.94
2022-08-29T04:37:18.079Z,97195.50
2022-08-29T04:42:39.311Z,97193.38
2022-08-29T04:48:03.528Z,97210.97
2022-08-29T04:53:25.759Z,97218.69
2022-08-29T04:58:47.423Z,97229.69
2022-08-29T05:04:12.521Z,97227.53
2022-08-29T05:09:35.239Z,97225.91
2022-08-29T05:14:56.691Z,97232.84
2022-08-29T05:20:17.954Z,97238.06
2022-08-29T05:25:39.399Z,97242.81
2022-08-29T05:31:01.266Z,97239.19
2022-08-29T05:36:22.520Z,97249.03
2022-08-29T05:41:43.821Z,97253.66
2022-08-29T05:47:07.519Z,97258.94
2022-08-29T05:52:29.441Z,97258.94
2022-08-29T05:57:53.504Z,97261.41
2022-08-29T06:03:15.003Z,97276.19
2022-08-29T06:08:35.942Z,97271.34
2022-08-29T06:13:56.900Z,97269.47
2022-08-29T06:19:17.985Z,97272.84
2022-08-29T06:24:39.829Z,97273.47
2022-08-29T06:30:02.022Z,97263.06
2022-08-29T06:35:23.227Z,97262.41
2022-08-29T06:40:43.922Z,97276.09
2022-08-29T06:46:05.428Z,97276.47
2022-08-29T06:51:28.117Z,97270.78
2022-08-29T06:56:49.893Z,97277.97
2022-08-29T07:02:10.742Z,97284.34
2022-08-29T07:07:31.539Z,97289.94
2022-08-29T07:12:56.976Z,97293.81
2022-08-29T07:18:18.234Z,97301.00
2022-08-29T07:23:39.554Z,97302.09
2022-08-29T07:29:03.599Z,97305.22
2022-08-29T07:34:24.752Z,97301.47
2022-08-29T07:39:45.660Z,97310.22
2022-08-29T07:45:09.501Z,97306.03
2022-08-29T07:50:30.356Z,97309.28
2022-08-29T07:55:50.952Z,97310.09
2022-08-29T08:01:21.199Z,97325.91
2022-08-29T08:06:43.355Z,97325.06
2022-08-29T08:12:08.384Z,97319.31
2022-08-29T08:17:29.551Z,97330.47
2022-08-29T08:22:50.235Z,97318.59
2022-08-29T08:28:13.815Z,97327.53
2022-08-29T08:33:38.840Z,97331.38
2022-08-29T08:39:00.069Z,97333.53
2022-08-29T08:44:27.152Z,97335.44
2022-08-29T08:50:00.448Z,97326.66
2022-08-29T08:55:47.658Z,97324.91
2022-08-29T09:01:45.612Z,97328.81
2022-08-29T09:07:44.910Z,97328.69
2022-08-29T09:13:30.343Z,97326.69
2022-08-29T09:18:54.123Z,97324.22
2022-08-29T09:24:38.946Z,97325.34
2022-08-29T09:30:03.206Z,97319.28
2022-08-29T09:35:29.389Z,97320.34
2022-08-29T09:40:55.653Z,97326.41
2022-08-29T09:46:26.552Z,97340.84
2022-08-29T09:51:49.162Z,97332.03
2022-08-29T09:57:19.197Z,97333.09
2022-08-29T10:02:52.370Z,97329.22
2022-08-29T10:08:36.823Z,97330.00
2022-08-29T10:14:26.372Z,97334.22
2022-08-29T10:19:47.619Z,97340.69
2022-08-29T10:25:37.461Z,97330.03
2022-08-29T10:31:23.248Z,97332.34
2022-08-29T10:36:50.691Z,97325.72
2022-08-29T10:42:16.327Z,97319.19
2022-08-29T10:47:43.215Z,97319.28
2022-08-29T10:53:16.693Z,97316.44
2022-08-29T10:59:03.252Z,97306.00
2022-08-29T11:04:38.167Z,97299.53
2022-08-29T11:10:23.477Z,97296.69
2022-08-29T11:15:52.819Z,97293.22
2022-08-29T11:21:48.796Z,97287.47
2022-08-29T11:27:28.984Z,97291.63
2022-08-29T11:33:02.908Z,97295.78
2022-08-29T11:39:00.233Z,97297.75
2022-08-29T11:44:30.322Z,97303.44
2022-08-29T11:49:52.106Z,97296.22
2022-08-29T11:55:34.276Z,97288.53
2022-08-29T12:00:56.851Z,97291.22
2022-08-29T12:06:28.917Z,97299.22
2022-08-29T12:11:58.882Z,97293.75
2022-08-29T12:17:19.652Z,97285.97
2022-08-29T12:23:01.499Z,97279.25
2022-08-29T12:28:23.668Z,97276.41
2022-08-29T12:34:23.524Z,97273.94
2022-08-29T12:40:19.179Z,97271.69
2022-08-29T12:45:43.635Z,97262.53
2022-08-29T12:51:05.184Z,97268.41
2022-08-29T12:56:26.296Z,97253.50
2022-08-29T13:01:49.985Z,97244.53
2022-08-29T13:07:18.273Z,97240.06
2022-08-29T13:12:39.113Z,97239.03
2022-08-29T13:18:01.756Z,97235.34
2022-08-29T13:23:29.681Z,97230.03
2022-08-29T13:28:53.284Z,97224.34
2022-08-29T13:34:18.050Z,97226.78
2022-08-29T13:39:43.824Z,97215.34
2022-08-29T13:45:09.328Z,97209.41
2022-08-29T13:50:31.340Z,97215.56
2022-08-29T13:55:51.913Z,97207.38
2022-08-29T14:06:58.270Z,97210.06
2022-08-29T14:12:19.781Z,97209.22
2022-08-29T14:17:42.214Z,97196.13
2022-08-29T14:23:03.481Z,97193.47
2022-08-29T14:28:24.330Z,97189.81
2022-08-29T14:33:45.168Z,97182.84
2022-08-29T14:39:13.188Z,97173.03
2022-08-29T14:44:34.674Z,97178.34
2022-08-29T14:49:55.875Z,97174.44
2022-08-29T14:55:17.931Z,97168.31
2022-08-29T15:00:39.088Z,97166.88
2022-08-29T15:06:00.121Z,97172.22
2022-08-29T15:11:20.958Z,97168.16
2022-08-29T15:16:41.992Z,97163.63
2022-08-29T15:22:03.292Z,97159.56
2022-08-29T15:27:27.619Z,97155.25
2022-08-29T15:32:49.430Z,97151.16
2022-08-29T15:38:10.341Z,97150.34
2022-08-29T15:43:31.077Z,97145.66
2022-08-29T15:48:52.724Z,97152.19
2022-08-29T15:54:14.886Z,97146.69
2022-08-29T15:59:56.983Z,97150.13
2022-08-29T16:05:16.330Z,97158.34
2022-08-29T16:10:37.634Z,97147.28
2022-08-29T16:15:58.749Z,97150.38
2022-08-29T16:21:20.881Z,97146.47
2022-08-29T16:26:45.597Z,97150.53
2022-08-29T16:32:08.031Z,97151.38
2022-08-29T16:37:29.433Z,97153.19
2022-08-29T16:42:55.247Z,97151.56
2022-08-29T16:48:17.927Z,97153.59
2022-08-29T16:53:39.477Z,97154.03
2022-08-29T16:59:00.461Z,97157.72
2022-08-29T17:04:24.827Z,97162.63
2022-08-29T17:09:45.955Z,97149.72
2022-08-29T17:15:07.162Z,97168.47
2022-08-29T17:20:28.157Z,97164.13
2022-08-29T17:25:48.752Z,97170.66
2022-08-29T17:31:09.729Z,97169.41
2022-08-29T17:36:31.435Z,97177.97
2022-08-29T17:41:52.632Z,97180.00
2022-08-29T17:47:13.717Z,97178.13
2022-08-29T17:52:34.566Z,97185.59
2022-08-29T17:57:55.528Z,97191.06
2022-08-29T18:03:17.070Z,97188.56
2022-08-29T18:08:39.074Z,97196.25
2022-08-29T18:14:01.207Z,97201.94
2022-08-29T18:19:22.909Z,97204.63
2022-08-29T18:24:43.645Z,97211.47
2022-08-29T18:30:07.025Z,97215.50
2022-08-29T18:35:29.705Z,97221.81
2022-08-29T18:40:51.191Z,97215.06
2022-08-29T18:46:15.737Z,97219.41
2022-08-29T18:51:37.175Z,97219.69
2022-08-29T18:56:58.379Z,97218.53
2022-08-29T19:02:19.591Z,97222.47
2022-08-29T19:07:40.883Z,97236.56
2022-08-29T19:13:01.596Z,97243.53
2022-08-29T19:18:22.435Z,97249.03
2022-08-29T19:23:46.226Z,97247.19
2022-08-29T19:29:15.717Z,97250.97
2022-08-29T19:34:36.796Z,97251.94
2022-08-29T19:39:57.676Z,97254.34
2022-08-29T19:45:19.648Z,97251.59
2022-08-29T19:50:41.530Z,97259.22
2022-08-29T19:56:03.757Z,97259.22
2022-08-29T20:01:26.591Z,97263.63
2022-08-29T20:06:48.097Z,97274.72
2022-08-29T20:12:09.031Z,97281.34
2022-08-29T20:17:31.387Z,97281.34
2022-08-29T20:23:00.034Z,97284.03
2022-08-29T20:28:20.721Z,97290.13
2022-08-29T20:33:43.774Z,97293.06
2022-08-29T20:39:06.182Z,97298.00
2022-08-29T20:44:34.022Z,97305.97
2022-08-29T20:49:56.646Z,97303.94
2022-08-29T20:55:18.702Z,97315.38
2022-08-29T21:00:39.860Z,97320.47
2022-08-29T21:06:03.951Z,97321.50
2022-08-29T21:11:25.566Z,97321.63
2022-08-29T21:16:46.353Z,97321.97
2022-08-29T21:22:09.749Z,97319.38
2022-08-29T21:27:30.846Z,97320.28
2022-08-29T21:32:51.491Z,97321.97
2022-08-29T21:38:12.598Z,97327.13
2022-08-29T21:43:33.305Z,97321.38
2022-08-29T21:48:56.697Z,97322.31
2022-08-29T21:54:18.449Z,97327.06
2022-08-29T21:59:39.657Z,97322.28
2022-08-29T22:05:00.568Z,97325.56
2022-08-29T22:10:25.698Z,97319.78
2022-08-29T22:16:05.254Z,97321.91
2022-08-29T22:21:27.474Z,97322.09
2022-08-29T22:26:48.422Z,97328.09
2022-08-29T22:32:09.473Z,97326.84
2022-08-29T22:37:31.899Z,97320.56
2022-08-29T22:42:52.459Z,97315.13
2022-08-29T22:48:16.386Z,97313.50
2022-08-29T22:53:37.414Z,97312.88
2022-08-29T22:59:00.033Z,97317.97
2022-08-29T23:04:21.227Z,97324.25
2022-08-29T23:09:43.189Z,97321.28
2022-08-29T23:15:07.509Z,97315.19
2022-08-29T23:20:29.598Z,97320.28
2022-08-29T23:25:50.399Z,97320.31
2022-08-29T23:31:11.185Z,97322.31
2022-08-29T23:36:32.179Z,97311.91
2022-08-29T23:41:53.738Z,97313.72
2022-08-29T23:47:14.376Z,97305.47
2022-08-29T23:52:35.054Z,97308.94
2022-08-29T23:57:55.639Z,97307.16
